createdAt,value
2019-02-25T00:00:17.955Z,8.08
2019-02-25T00:02:47.228Z,7.94
2019-02-25T00:05:16.527Z,7.91
2019-02-25T00:07:45.759Z,8.06
2019-02-25T00:10:15.065Z,8.02
2019-02-25T00:12:44.367Z,8.01
2019-02-25T00:15:13.607Z,7.90
2019-02-25T00:17:42.860Z,7.78
2019-02-25T00:20:12.275Z,7.63
2019-02-25T00:22:41.491Z,7.50
2019-02-25T00:25:10.862Z,7.78
2019-02-25T00:27:40.119Z,7.55
2019-02-25T00:30:09.568Z,7.62
2019-02-25T00:32:38.804Z,7.58
2019-02-25T00:35:08.090Z,7.69
2019-02-25T00:37:37.312Z,7.65
2019-02-25T00:40:07.529Z,7.52
2019-02-25T00:42:36.742Z,7.58
2019-02-25T00:45:06.562Z,7.51
2019-02-25T00:47:35.826Z,7.56
2019-02-25T00:50:05.922Z,7.51
2019-02-25T00:52:35.192Z,7.80
2019-02-25T00:55:04.820Z,7.62
2019-02-25T00:57:34.111Z,7.58
2019-02-25T01:00:03.393Z,7.70
2019-02-25T01:02:32.645Z,7.67
2019-02-25T01:05:01.890Z,7.26
2019-02-25T01:07:31.124Z,7.53
2019-02-25T01:10:00.353Z,7.31
2019-02-25T01:12:29.608Z,7.49
2019-02-25T01:14:58.831Z,7.32
2019-02-25T01:17:28.081Z,7.41
2019-02-25T01:19:57.314Z,7.37
2019-02-25T01:22:26.580Z,7.41
2019-02-25T01:24:55.801Z,7.53
2019-02-25T01:27:25.106Z,7.48
2019-02-25T01:29:54.334Z,7.53
2019-02-25T01:32:23.570Z,7.31
2019-02-25T01:34:52.799Z,7.33
2019-02-25T01:37:22.024Z,7.44
2019-02-25T01:39:51.256Z,7.31
2019-02-25T01:42:20.525Z,7.42
2019-02-25T01:44:49.762Z,7.39
2019-02-25T01:47:19.022Z,7.11
2019-02-25T01:49:48.277Z,7.03
2019-02-25T01:52:17.482Z,7.29
2019-02-25T01:54:46.803Z,7.29
2019-02-25T01:57:16.118Z,7.29
2019-02-25T01:59:45.461Z,7.32
2019-02-25T02:02:14.758Z,7.22
2019-02-25T02:04:44.044Z,7.14
2019-02-25T02:07:13.270Z,7.24
2019-02-25T02:09:42.524Z,7.26
2019-02-25T02:12:11.745Z,7.20
2019-02-25T02:14:41.012Z,7.32
2019-02-25T02:17:10.253Z,7.26
2019-02-25T02:19:39.497Z,7.10
2019-02-25T02:22:08.733Z,7.18
2019-02-25T02:24:37.994Z,7.33
2019-02-25T02:27:07.233Z,7.18
2019-02-25T02:29:36.464Z,7.08
2019-02-25T02:32:05.708Z,6.78
2019-02-25T02:34:34.961Z,6.65
2019-02-25T02:37:04.226Z,6.91
2019-02-25T02:39:33.466Z,7.04
2019-02-25T02:42:23.892Z,6.98
2019-02-25T02:45:12.441Z,6.83
2019-02-25T02:47:51.125Z,6.75
2019-02-25T02:50:24.656Z,6.81
2019-02-25T02:52:53.895Z,6.87
2019-02-25T02:55:23.136Z,6.77
2019-02-25T02:57:52.460Z,6.78
2019-02-25T03:00:21.718Z,6.65
2019-02-25T03:02:50.944Z,6.70
2019-02-25T03:05:20.294Z,7.02
2019-02-25T03:07:49.536Z,7.15
2019-02-25T03:10:19.303Z,6.82
2019-02-25T03:12:48.562Z,6.97
2019-02-25T03:15:19.245Z,7.01
2019-02-25T03:17:48.463Z,6.98
2019-02-25T03:20:17.671Z,6.79
2019-02-25T03:22:46.896Z,6.84
2019-02-25T03:25:16.939Z,6.94
2019-02-25T03:27:46.337Z,6.95
2019-02-25T03:30:17.508Z,6.86
2019-02-25T03:32:46.814Z,6.83
2019-02-25T03:35:17.703Z,6.63
2019-02-25T03:37:46.926Z,6.53
2019-02-25T03:40:17.703Z,6.53
2019-02-25T03:42:46.920Z,6.39
2019-02-25T03:45:18.536Z,6.43
2019-02-25T03:47:47.826Z,6.53
2019-02-25T03:50:17.045Z,6.57
2019-02-25T03:52:46.324Z,6.42
2019-02-25T03:55:19.515Z,6.35
2019-02-25T03:57:49.751Z,6.54
2019-02-25T04:00:21.708Z,6.59
2019-02-25T04:02:50.978Z,6.45
2019-02-25T04:05:20.220Z,6.45
2019-02-25T04:07:49.450Z,6.35
2019-02-25T04:10:18.707Z,6.25
2019-02-25T04:12:47.958Z,6.49
2019-02-25T04:15:22.859Z,6.54
2019-02-25T04:17:52.090Z,6.51
2019-02-25T04:20:21.308Z,6.48
2019-02-25T04:22:50.556Z,6.49
2019-02-25T04:25:19.826Z,6.24
2019-02-25T04:27:49.101Z,5.88
2019-02-25T04:30:18.443Z,5.82
2019-02-25T04:32:47.668Z,6.16
2019-02-25T04:35:16.942Z,6.18
2019-02-25T04:37:46.166Z,6.15
2019-02-25T04:40:15.454Z,6.16
2019-02-25T04:42:44.666Z,6.07
2019-02-25T04:45:15.670Z,6.07
2019-02-25T04:47:44.897Z,5.87
2019-02-25T04:50:14.203Z,5.96
2019-02-25T04:52:43.422Z,6.03
2019-02-25T04:55:13.412Z,6.32
2019-02-25T04:57:42.663Z,6.38
2019-02-25T05:00:14.223Z,6.23
2019-02-25T05:02:43.632Z,6.45
2019-02-25T05:05:13.141Z,6.20
2019-02-25T05:07:42.396Z,5.91
2019-02-25T05:10:12.748Z,6.05
2019-02-25T05:12:45.883Z,5.79
2019-02-25T05:15:16.939Z,5.65
2019-02-25T05:17:46.154Z,5.46
2019-02-25T05:20:15.418Z,5.74
2019-02-25T05:22:44.843Z,6.11
2019-02-25T05:25:14.296Z,5.86
2019-02-25T05:27:43.543Z,5.84
2019-02-25T05:30:12.829Z,5.95
2019-02-25T05:32:42.145Z,5.96
2019-02-25T05:35:11.951Z,6.05
2019-02-25T05:37:41.330Z,5.81
2019-02-25T05:40:12.935Z,5.52
2019-02-25T05:42:42.187Z,5.58
2019-02-25T05:45:11.563Z,5.64
2019-02-25T05:47:40.788Z,5.49
2019-02-25T05:50:12.241Z,5.83
2019-02-25T05:52:41.470Z,5.94
2019-02-25T05:55:12.125Z,5.64
2019-02-25T05:57:41.363Z,5.89
2019-02-25T06:00:17.930Z,5.95
2019-02-25T06:02:47.184Z,5.72
2019-02-25T06:05:19.364Z,5.80
2019-02-25T06:07:48.605Z,5.74
2019-02-25T06:10:17.819Z,5.58
2019-02-25T06:12:47.071Z,5.68
2019-02-25T06:15:16.357Z,5.54
2019-02-25T06:17:45.614Z,5.45
2019-02-25T06:20:15.149Z,5.50
2019-02-25T06:22:44.388Z,5.70
2019-02-25T06:25:13.805Z,5.68
2019-02-25T06:27:43.228Z,5.78
2019-02-25T06:30:14.941Z,5.78
2019-02-25T06:32:44.198Z,5.85
2019-02-25T06:35:13.711Z,5.88
2019-02-25T06:37:43.059Z,5.83
2019-02-25T06:40:15.574Z,5.97
2019-02-25T06:42:44.541Z,5.92
2019-02-25T06:45:15.569Z,5.89
2019-02-25T06:47:44.816Z,5.90
2019-02-25T06:50:14.043Z,5.84
2019-02-25T06:52:43.332Z,5.80
2019-02-25T06:55:13.922Z,5.63
2019-02-25T06:57:43.133Z,5.84
2019-02-25T07:00:14.843Z,6.08
2019-02-25T07:02:44.093Z,6.09
2019-02-25T07:05:19.185Z,6.09
2019-02-25T07:08:06.134Z,5.71
2019-02-25T07:11:00.224Z,5.85
2019-02-25T07:13:46.985Z,6.15
2019-02-25T07:16:25.203Z,6.32
2019-02-25T07:19:25.424Z,6.61
2019-02-25T07:22:15.861Z,6.69
2019-02-25T07:24:55.320Z,6.88
2019-02-25T07:27:42.220Z,6.83
2019-02-25T07:30:42.623Z,6.50
2019-02-25T07:33:48.759Z,6.67
2019-02-25T07:36:26.811Z,6.83
2019-02-25T07:39:06.807Z,7.04
2019-02-25T07:41:53.750Z,7.12
2019-02-25T07:44:36.269Z,7.40
2019-02-25T07:47:33.489Z,7.87
2019-02-25T07:50:14.238Z,7.99
2019-02-25T07:53:02.423Z,8.23
2019-02-25T07:56:05.832Z,8.42
2019-02-25T07:58:54.021Z,8.30
2019-02-25T08:01:39.605Z,8.45
2019-02-25T08:04:26.805Z,8.83
2019-02-25T08:07:13.495Z,8.95
2019-02-25T08:10:07.847Z,9.11
2019-02-25T08:12:52.576Z,9.31
2019-02-25T08:15:38.709Z,9.42
2019-02-25T08:18:21.732Z,9.47
2019-02-25T08:21:15.741Z,9.67
2019-02-25T08:23:50.977Z,9.81
2019-02-25T08:26:39.188Z,10.14
2019-02-25T08:29:19.129Z,10.12
2019-02-25T08:32:07.387Z,10.36
2019-02-25T08:34:54.305Z,10.60
2019-02-25T08:38:14.100Z,10.64
2019-02-25T08:41:08.981Z,10.92
2019-02-25T08:43:55.920Z,11.03
2019-02-25T08:46:38.931Z,11.26
2019-02-25T08:49:14.531Z,11.56
2019-02-25T08:51:43.772Z,11.66
2019-02-25T08:54:13.080Z,11.75
2019-02-25T08:56:42.291Z,12.00
2019-02-25T08:59:11.514Z,11.85
2019-02-25T09:01:40.823Z,12.00
2019-02-25T09:04:10.095Z,12.02
2019-02-25T09:06:39.324Z,11.96
2019-02-25T09:09:08.615Z,12.00
2019-02-25T09:11:37.869Z,12.21
2019-02-25T09:14:07.149Z,12.63
2019-02-25T09:16:36.451Z,12.60
2019-02-25T09:19:05.680Z,12.74
2019-02-25T09:21:34.930Z,12.91
2019-02-25T09:24:04.281Z,12.83
2019-02-25T09:26:33.563Z,12.95
2019-02-25T09:29:02.816Z,13.23
2019-02-25T09:31:32.077Z,13.38
2019-02-25T09:34:01.319Z,13.45
2019-02-25T09:36:30.577Z,13.55
2019-02-25T09:38:59.808Z,13.79
2019-02-25T09:41:30.240Z,13.80
2019-02-25T09:43:59.666Z,13.96
2019-02-25T09:46:28.964Z,14.23
2019-02-25T09:48:58.188Z,14.08
2019-02-25T09:51:27.445Z,14.30
2019-02-25T09:53:56.695Z,14.33
2019-02-25T09:56:25.970Z,14.24
2019-02-25T09:58:55.220Z,14.62
2019-02-25T10:01:24.498Z,14.50
2019-02-25T10:03:53.709Z,14.82
2019-02-25T10:06:22.954Z,14.91
2019-02-25T10:08:52.233Z,14.93
2019-02-25T10:11:21.487Z,15.17
2019-02-25T10:13:51.935Z,15.19
2019-02-25T10:16:21.191Z,15.33
2019-02-25T10:18:50.462Z,15.27
2019-02-25T10:21:19.745Z,15.43
2019-02-25T10:23:49.010Z,15.42
2019-02-25T10:26:18.255Z,15.52
2019-02-25T10:28:47.542Z,15.97
2019-02-25T10:31:17.471Z,15.81
2019-02-25T10:33:46.821Z,15.68
2019-02-25T10:36:16.036Z,15.79
2019-02-25T10:38:45.288Z,15.78
2019-02-25T10:41:14.497Z,16.24
2019-02-25T10:43:43.753Z,16.22
2019-02-25T10:46:15.119Z,16.10
2019-02-25T10:48:43.985Z,16.31
2019-02-25T10:51:13.736Z,16.62
2019-02-25T10:53:44.760Z,16.50
2019-02-25T10:56:21.577Z,16.54
2019-02-25T10:58:50.343Z,16.53
2019-02-25T11:01:22.127Z,16.93
2019-02-25T11:03:52.586Z,16.93
2019-02-25T11:06:21.624Z,16.75
2019-02-25T11:08:57.447Z,17.11
2019-02-25T11:11:30.115Z,17.21
2019-02-25T11:14:00.933Z,17.21
2019-02-25T11:16:30.390Z,17.35
2019-02-25T11:19:00.917Z,17.47
2019-02-25T11:21:30.185Z,17.25
2019-02-25T11:23:59.459Z,17.88
2019-02-25T11:26:30.531Z,17.45
2019-02-25T11:28:59.724Z,17.51
2019-02-25T11:31:29.262Z,17.59
2019-02-25T11:34:00.531Z,17.57
2019-02-25T11:36:29.450Z,17.67
2019-02-25T11:39:00.689Z,17.70
2019-02-25T11:41:31.679Z,18.09
2019-02-25T11:44:00.684Z,18.02
2019-02-25T11:46:30.017Z,17.84
2019-02-25T11:48:59.302Z,18.16
2019-02-25T11:51:28.569Z,18.23
2019-02-25T11:53:59.445Z,18.12
2019-02-25T11:56:28.868Z,17.82
2019-02-25T11:58:58.141Z,18.25
2019-02-25T12:01:27.411Z,18.49
2019-02-25T12:03:56.691Z,18.53
2019-02-25T12:06:26.020Z,18.57
2019-02-25T12:08:55.269Z,18.45
2019-02-25T12:11:24.573Z,18.57
2019-02-25T12:13:53.839Z,18.77
2019-02-25T12:16:23.116Z,19.00
2019-02-25T12:18:52.369Z,18.74
2019-02-25T12:21:22.772Z,18.73
2019-02-25T12:23:52.028Z,18.81
2019-02-25T12:26:21.352Z,19.31
2019-02-25T12:28:50.640Z,19.29
2019-02-25T12:31:19.917Z,19.25
2019-02-25T12:33:49.243Z,19.23
2019-02-25T12:36:18.488Z,18.87
2019-02-25T12:38:47.784Z,19.17
2019-02-25T12:41:17.029Z,19.45
2019-02-25T12:43:46.304Z,19.41
2019-02-25T12:46:15.574Z,19.63
2019-02-25T12:48:44.860Z,19.51
2019-02-25T12:51:14.097Z,19.23
2019-02-25T12:53:43.382Z,19.58
2019-02-25T12:56:12.631Z,19.23
2019-02-25T12:58:41.895Z,19.62
2019-02-25T13:01:11.213Z,19.49
2019-02-25T13:03:40.491Z,19.59
2019-02-25T13:06:09.700Z,19.72
2019-02-25T13:08:39.014Z,20.07
2019-02-25T13:11:08.294Z,19.90
2019-02-25T13:13:37.590Z,20.16
2019-02-25T13:19:47.085Z,19.91
2019-02-25T13:22:16.402Z,19.82
2019-02-25T13:24:45.653Z,20.10
2019-02-25T13:27:14.991Z,19.94
2019-02-25T13:29:44.287Z,20.34
2019-02-25T13:32:13.515Z,20.39
2019-02-25T13:34:42.842Z,20.10
2019-02-25T13:37:12.142Z,20.20
2019-02-25T13:39:41.425Z,20.23
2019-02-25T13:42:10.667Z,20.48
2019-02-25T13:44:40.021Z,20.70
2019-02-25T13:47:09.268Z,20.50
2019-02-25T13:49:38.552Z,20.26
2019-02-25T13:52:08.090Z,20.01
2019-02-25T13:54:37.407Z,20.02
2019-02-25T13:57:06.647Z,20.51
2019-02-25T13:59:35.964Z,20.77
2019-02-25T14:02:05.202Z,20.57
2019-02-25T14:04:34.532Z,20.40
2019-02-25T14:07:03.804Z,20.26
2019-02-25T14:09:33.143Z,20.49
2019-02-25T14:12:02.450Z,20.48
2019-02-25T14:14:31.732Z,20.44
2019-02-25T14:17:01.005Z,20.30
2019-02-25T14:19:30.292Z,20.25
2019-02-25T14:21:59.591Z,20.56
2019-02-25T14:24:29.277Z,20.62
2019-02-25T14:26:58.647Z,20.60
2019-02-25T14:29:27.916Z,20.92
2019-02-25T14:31:57.261Z,20.81
2019-02-25T14:34:26.511Z,21.10
2019-02-25T14:36:57.181Z,20.78
2019-02-25T14:39:28.465Z,20.79
2019-02-25T14:41:59.226Z,20.47
2019-02-25T14:44:32.416Z,20.36
2019-02-25T14:47:02.686Z,20.53
2019-02-25T14:49:35.264Z,20.49
2019-02-25T14:52:04.781Z,20.56
2019-02-25T14:54:34.326Z,20.48
2019-02-25T14:57:03.657Z,20.44
2019-02-25T14:59:32.926Z,20.59
2019-02-25T15:02:03.946Z,20.30
2019-02-25T15:04:35.078Z,20.64
2019-02-25T15:07:06.303Z,20.51
2019-02-25T15:09:37.043Z,20.34
2019-02-25T15:12:07.508Z,20.52
2019-02-25T15:14:37.196Z,20.40
2019-02-25T15:17:08.297Z,20.57
2019-02-25T15:19:38.717Z,20.46
2019-02-25T15:22:08.648Z,20.73
2019-02-25T15:24:38.319Z,20.46
2019-02-25T15:27:09.306Z,20.63
2019-02-25T15:29:39.798Z,20.61
2019-02-25T15:32:09.593Z,20.45
2019-02-25T15:34:38.911Z,20.28
2019-02-25T15:37:09.504Z,20.28
2019-02-25T15:39:41.804Z,20.34
2019-02-25T15:42:10.187Z,20.38
2019-02-25T15:44:40.373Z,20.25
2019-02-25T15:47:11.269Z,20.00
2019-02-25T15:49:41.753Z,20.01
2019-02-25T15:52:14.650Z,20.29
2019-02-25T15:54:43.586Z,20.02
2019-02-25T15:57:13.106Z,20.06
2019-02-25T15:59:42.481Z,19.65
2019-02-25T16:02:14.194Z,19.63
2019-02-25T16:04:42.770Z,19.74
2019-02-25T16:07:12.140Z,19.65
2019-02-25T16:09:41.415Z,19.58
2019-02-25T16:12:12.206Z,19.63
2019-02-25T16:14:42.185Z,19.52
2019-02-25T16:17:12.494Z,19.55
2019-02-25T16:19:47.332Z,19.51
2019-02-25T16:22:12.806Z,19.46
2019-02-25T16:24:43.603Z,19.26
2019-02-25T16:27:12.979Z,19.26
2019-02-25T16:29:42.250Z,19.24
2019-02-25T16:32:11.520Z,19.16
2019-02-25T16:34:42.586Z,19.06
2019-02-25T16:37:12.227Z,19.03
2019-02-25T16:39:41.572Z,18.85
2019-02-25T16:42:10.870Z,18.76
2019-02-25T16:44:40.109Z,18.81
2019-02-25T16:47:09.768Z,18.68
2019-02-25T16:49:40.483Z,18.54
2019-02-25T16:52:09.999Z,18.64
2019-02-25T16:54:39.258Z,18.63
2019-02-25T16:57:08.731Z,18.52
2019-02-25T16:59:38.075Z,18.31
2019-02-25T17:02:09.669Z,18.32
2019-02-25T17:04:38.486Z,18.34
2019-02-25T17:07:07.787Z,18.12
2019-02-25T17:09:39.150Z,18.23
2019-02-25T17:12:08.928Z,18.02
2019-02-25T17:14:40.553Z,17.92
2019-02-25T17:17:09.486Z,17.94
2019-02-25T17:19:38.837Z,17.88
2019-02-25T17:22:08.188Z,17.68
2019-02-25T17:24:38.793Z,17.66
2019-02-25T17:27:11.472Z,17.62
2019-02-25T17:29:40.611Z,17.37
2019-02-25T17:32:11.002Z,17.29
2019-02-25T17:34:41.409Z,17.07
2019-02-25T17:37:12.646Z,17.06
2019-02-25T17:39:42.616Z,17.05
2019-02-25T17:42:11.972Z,16.97
2019-02-25T17:44:41.637Z,16.85
2019-02-25T17:47:12.753Z,16.66
2019-02-25T17:49:43.301Z,16.49
2019-02-25T17:52:14.155Z,16.52
2019-02-25T17:54:43.912Z,16.56
2019-02-25T17:57:14.178Z,16.47
2019-02-25T17:59:44.117Z,16.55
2019-02-25T18:02:14.713Z,16.26
2019-02-25T18:04:44.073Z,16.28
2019-02-25T18:07:13.335Z,16.19
2019-02-25T18:09:44.381Z,15.79
2019-02-25T18:12:13.658Z,15.62
2019-02-25T18:14:43.573Z,15.77
2019-02-25T18:17:16.865Z,15.69
2019-02-25T18:19:45.707Z,15.43
2019-02-25T18:22:17.295Z,15.30
2019-02-25T18:24:46.908Z,15.26
2019-02-25T18:27:16.474Z,15.06
2019-02-25T18:29:46.540Z,15.07
2019-02-25T18:32:16.780Z,14.95
2019-02-25T18:34:46.398Z,14.99
2019-02-25T18:37:17.573Z,14.81
2019-02-25T18:39:47.945Z,14.80
2019-02-25T18:42:20.132Z,14.76
2019-02-25T18:44:50.809Z,14.49
2019-02-25T18:47:20.831Z,14.53
2019-02-25T18:49:52.106Z,14.41
2019-02-25T18:52:22.333Z,14.25
2019-02-25T18:54:51.720Z,14.14
2019-02-25T18:57:22.932Z,14.10
2019-02-25T18:59:52.205Z,14.19
2019-02-25T19:02:21.612Z,14.19
2019-02-25T19:04:50.951Z,13.85
2019-02-25T19:07:22.661Z,13.81
2019-02-25T19:09:53.838Z,13.84
2019-02-25T19:12:23.281Z,13.78
2019-02-25T19:14:55.139Z,13.69
2019-02-25T19:17:25.419Z,13.51
2019-02-25T19:19:54.731Z,13.42
2019-02-25T19:22:24.488Z,13.57
2019-02-25T19:24:53.857Z,13.73
2019-02-25T19:27:25.023Z,13.76
2019-02-25T19:29:58.602Z,13.66
2019-02-25T19:32:26.071Z,13.56
2019-02-25T19:34:56.702Z,13.68
2019-02-25T19:37:31.201Z,13.67
2019-02-25T19:39:57.807Z,13.62
2019-02-25T19:42:29.063Z,13.74
2019-02-25T19:45:02.696Z,13.71
2019-02-25T19:47:30.799Z,13.55
2019-02-25T19:50:02.224Z,13.43
2019-02-25T19:52:34.730Z,13.23
2019-02-25T19:55:05.646Z,13.26
2019-02-25T19:57:34.088Z,13.16
2019-02-25T20:00:03.402Z,12.99
2019-02-25T20:02:34.740Z,12.81
2019-02-25T20:05:04.695Z,12.60
2019-02-25T20:07:35.875Z,12.75
2019-02-25T20:10:06.001Z,12.82
2019-02-25T20:12:35.714Z,12.76
2019-02-25T20:15:09.078Z,12.70
2019-02-25T20:17:37.024Z,12.71
2019-02-25T20:20:08.176Z,12.74
2019-02-25T20:22:38.794Z,12.49
2019-02-25T20:25:10.773Z,12.38
2019-02-25T20:27:40.802Z,12.28
2019-02-25T20:30:12.686Z,12.16
2019-02-25T20:32:42.902Z,11.86
2019-02-25T20:35:13.999Z,12.31
2019-02-25T20:37:46.383Z,12.31
2019-02-25T20:40:19.075Z,12.41
2019-02-25T20:42:49.048Z,12.38
2019-02-25T20:45:22.985Z,12.17
2019-02-25T20:47:50.035Z,12.14
2019-02-25T20:50:21.164Z,11.89
2019-02-25T20:52:50.535Z,11.94
2019-02-25T20:55:19.945Z,11.89
2019-02-25T20:57:49.238Z,11.75
2019-02-25T21:00:20.016Z,11.57
2019-02-25T21:02:49.494Z,11.51
2019-02-25T21:05:21.857Z,11.49
2019-02-25T21:07:50.479Z,11.85
2019-02-25T21:10:22.533Z,11.65
2019-02-25T21:12:56.879Z,11.66
2019-02-25T21:15:26.059Z,11.35
2019-02-25T21:17:57.727Z,11.13
2019-02-25T21:20:28.871Z,11.25
2019-02-25T21:23:00.077Z,11.45
2019-02-25T21:25:29.124Z,11.30
2019-02-25T21:27:59.963Z,11.44
2019-02-25T21:30:29.974Z,11.43
2019-02-25T21:32:59.295Z,11.47
2019-02-25T21:35:30.143Z,11.47
2019-02-25T21:37:59.642Z,11.46
2019-02-25T21:40:30.133Z,11.37
2019-02-25T21:43:00.136Z,11.18
2019-02-25T21:45:32.105Z,11.29
2019-02-25T21:54:45.116Z,10.97
2019-02-25T21:57:33.454Z,10.90
2019-02-25T22:06:33.279Z,11.20
2019-02-25T22:11:49.398Z,11.06
2019-02-25T22:14:33.786Z,11.16
2019-02-25T22:17:32.955Z,11.01
2019-02-25T22:20:35.632Z,10.80
2019-02-25T22:23:34.909Z,10.78
2019-02-25T22:26:04.000Z,10.88
2019-02-25T22:28:34.834Z,10.57
2019-02-25T22:31:33.010Z,10.70
2019-02-25T22:34:31.425Z,10.90
2019-02-25T22:37:02.396Z,11.10
2019-02-25T22:39:35.045Z,10.29
2019-02-25T22:42:35.545Z,10.59
2019-02-25T22:45:33.079Z,10.55
2019-02-25T22:48:32.765Z,10.46
2019-02-25T22:51:02.630Z,10.53
2019-02-25T22:53:33.050Z,10.05
2019-02-25T22:56:02.323Z,9.87
2019-02-25T22:58:33.798Z,10.09
2019-02-25T23:01:09.981Z,10.07
2019-02-25T23:03:42.950Z,9.99
2019-02-25T23:06:13.298Z,10.16
2019-02-25T23:08:44.029Z,10.04
2019-02-25T23:11:14.371Z,10.13
2019-02-25T23:13:45.564Z,10.23
2019-02-25T23:16:15.706Z,10.10
2019-02-25T23:18:45.317Z,10.15
2019-02-25T23:21:23.513Z,9.86
2019-02-25T23:23:45.706Z,9.85
2019-02-25T23:26:16.904Z,9.98
2019-02-25T23:28:46.020Z,9.93
2019-02-25T23:31:15.307Z,9.99
2019-02-25T23:33:46.546Z,9.96
2019-02-25T23:36:17.542Z,9.71
2019-02-25T23:38:46.579Z,10.00
2019-02-25T23:41:16.682Z,9.93
2019-02-25T23:43:46.986Z,9.83
2019-02-25T23:46:16.978Z,9.86
2019-02-25T23:48:46.598Z,10.45
2019-02-25T23:51:17.123Z,9.64
2019-02-25T23:53:48.671Z,9.64
2019-02-25T23:56:22.151Z,9.44
2019-02-25T23:58:50.146Z,9.58
